.
WxDataArchive / Data Records for 2007-03-21
2007-03-20 March 2007 2007-03-22

Data Records for Wednesday, 21 March 2007

Time	Temp	Chill	HIndex	Humid	Dewpt	 Wind 	HiWind	WindDir	Rain 	Barom 
-----	----	-----	------	-----	-----	------	------	-------	-----	----- 
00:00	27.6	27.6	27.6	78	21.7	3	7	112	0.00	30.450 
00:05	27.6	27.6	27.6	78	21.7	3	9	112	0.00	30.449 
00:10	27.5	22.9	27.5	78	21.6	4	11	112	0.00	30.449 
00:15	27.5	22.9	27.5	79	21.9	4	10	112	0.00	30.445 
00:20	27.5	22.9	27.5	79	21.9	4	10	112	0.00	30.439 
00:25	27.3	27.3	27.3	79	21.7	3	7	112	0.00	30.438 
00:30	27.3	22.6	27.3	80	22.0	4	9	112	0.00	30.437 
00:35	27.3	22.6	27.3	80	22.0	4	9	112	0.00	30.436 
00:40	27.3	22.6	27.3	80	22.0	4	9	90	0.00	30.435 
00:45	27.3	22.6	27.3	80	22.0	4	10	90	0.00	30.433 
00:50	27.5	21.8	27.5	80	22.2	5	11	90	0.00	30.427 
00:55	27.5	22.9	27.5	80	22.2	4	8	112	0.00	30.426 
01:00	27.6	23.0	27.6	81	22.5	4	7	112	0.00	30.425 
01:05	27.8	27.8	27.8	81	22.7	3	7	112	0.00	30.425 
01:10	27.8	27.8	27.8	80	22.4	3	7	112	0.00	30.422 
01:15	27.9	23.3	27.9	81	22.8	4	9	112	0.00	30.420 
01:20	28.1	23.6	28.1	80	22.7	4	9	112	0.00	30.419 
01:25	28.2	22.6	28.2	80	22.8	5	10	112	0.00	30.419 
01:30	28.4	23.9	28.4	80	23.0	4	10	90	0.00	30.419 
01:35	28.5	24.0	28.5	80	23.1	4	8	112	0.00	30.418 
01:40	28.7	28.7	28.7	80	23.3	3	6	90	0.00	30.416 
01:45	28.8	24.4	28.8	80	23.4	4	6	112	0.00	30.415 
01:50	29.0	24.6	29.0	79	23.3	4	9	90	0.00	30.413 
01:55	29.0	24.6	29.0	79	23.3	4	10	112	0.00	30.405 
02:00	29.1	24.7	29.1	79	23.4	4	7	112	0.00	30.403 
02:05	29.3	23.9	29.3	79	23.6	5	12	112	0.00	30.402 
02:10	29.3	25.0	29.3	79	23.6	4	10	112	0.00	30.400 
02:15	29.4	23.1	29.4	79	23.7	6	13	112	0.00	30.399 
02:20	29.4	25.1	29.4	79	23.7	4	7	90	0.00	30.400 
02:25	29.4	24.0	29.4	79	23.7	5	11	112	0.00	30.398 
02:30	29.5	24.1	29.5	79	23.8	5	10	90	0.00	30.392 
02:35	29.5	29.5	29.5	80	24.1	3	9	112	0.00	30.391 
02:40	29.7	29.7	29.7	79	24.0	3	6	112	0.00	30.393 
02:45	29.7	25.4	29.7	79	24.0	4	9	90	0.00	30.386 
02:50	29.8	25.5	29.8	79	24.1	4	9	90	0.00	30.384 
02:55	29.8	25.5	29.8	79	24.1	4	7	112	0.00	30.382 
03:00	30.0	30.0	30.0	80	24.6	3	11	112	0.00	30.375 
03:05	30.0	25.8	30.0	80	24.6	4	11	112	0.00	30.379 
03:10	30.1	25.9	30.1	80	24.7	4	7	90	0.00	30.374 
03:15	30.1	24.8	30.1	81	25.0	5	10	90	0.00	30.372 
03:20	30.1	30.1	30.1	81	25.0	2	5	90	0.00	30.371 
03:25	30.1	25.9	30.1	82	25.3	4	7	90	0.00	30.370 
03:30	30.1	25.9	30.1	81	25.0	4	8	112	0.00	30.369 
03:35	30.1	30.1	30.1	82	25.3	3	7	90	0.00	30.369 
03:40	30.1	30.1	30.1	82	25.3	2	5	90	0.00	30.369 
03:45	30.3	30.3	30.3	82	25.5	3	7	112	0.00	30.369 
03:50	30.4	30.4	30.4	83	25.9	1	3	90	0.00	30.369 
03:55	30.4	30.4	30.4	83	25.9	3	6	112	0.00	30.369 
04:00	30.4	30.4	30.4	83	25.9	2	5	90	0.00	30.360 
04:05	30.4	30.4	30.4	85	26.4	2	5	112	0.01	30.360 
04:10	30.4	30.4	30.4	85	26.4	3	6	90	0.00	30.360 
04:15	30.4	30.4	30.4	86	26.7	3	6	112	0.00	30.345 
04:20	30.4	26.2	30.4	87	27.0	4	7	112	0.01	30.345 
04:25	30.4	26.2	30.4	87	27.0	4	9	112	0.00	30.345 
04:30	30.4	26.2	30.4	87	27.0	4	8	112	0.00	30.339 
04:35	30.6	26.5	30.6	88	27.5	4	9	90	0.01	30.339 
04:40	30.6	26.5	30.6	87	27.2	4	10	112	0.00	30.339 
04:45	30.6	26.5	30.6	88	27.5	4	8	112	0.01	30.331 
04:50	30.7	26.6	30.7	88	27.6	4	7	90	0.00	30.331 
04:55	30.7	26.6	30.7	88	27.6	4	7	112	0.00	30.331 
05:00	30.7	26.6	30.7	89	27.8	4	7	112	0.01	30.319 
05:05	30.9	30.9	30.9	89	28.0	3	7	90	0.00	30.319 
05:10	30.9	26.8	30.9	89	28.0	4	6	112	0.00	30.319 
05:15	30.9	30.9	30.9	89	28.0	3	6	112	0.00	30.317 
05:20	31.0	31.0	31.0	89	28.1	3	6	112	0.00	30.317 
05:25	31.0	31.0	31.0	90	28.4	3	6	112	0.00	30.317 
05:30	31.2	27.2	31.2	89	28.3	4	7	112	0.00	30.311 
05:35	31.2	31.2	31.2	90	28.6	3	7	90	0.00	30.311 
05:40	31.3	27.3	31.3	90	28.7	4	7	112	0.00	30.311 
05:45	31.5	31.5	31.5	90	28.9	3	6	112	0.00	30.309 
05:50	31.5	31.5	31.5	90	28.9	3	5	112	0.00	30.309 
05:55	31.5	27.5	31.5	90	28.9	4	6	112	0.01	30.309 
06:00	31.6	31.6	31.6	90	29.0	3	6	90	0.00	30.306 
06:05	31.8	31.8	31.8	91	29.5	2	6	112	0.00	30.306 
06:10	31.8	31.8	31.8	91	29.5	3	6	90	0.00	30.306 
06:15	31.8	31.8	31.8	91	29.5	3	5	112	0.00	30.306 
06:20	31.8	31.8	31.8	91	29.5	3	7	90	0.00	30.306 
06:25	31.9	31.9	31.9	91	29.6	3	7	90	0.00	30.306 
06:30	31.9	31.9	31.9	91	29.6	3	6	112	0.00	30.305 
06:35	32.1	32.1	32.1	91	29.8	3	6	112	0.00	30.305 
06:40	32.2	32.2	32.2	91	29.9	3	5	112	0.00	30.305 
06:45	32.2	32.2	32.2	91	29.9	2	4	112	0.00	30.302 
06:50	32.4	32.4	32.4	91	30.1	1	3	112	0.00	30.302 
06:55	32.5	32.5	32.5	91	30.2	2	4	112	0.00	30.302 
07:00	32.7	32.7	32.7	91	30.4	2	4	112	0.00	30.299 
07:05	32.7	32.7	32.7	91	30.4	3	5	112	0.00	30.299 
07:10	32.7	32.7	32.7	90	30.1	2	5	112	0.00	30.299 
07:15	32.8	32.8	32.8	90	30.2	2	4	112	0.01	30.297 
07:20	32.8	32.8	32.8	91	30.5	2	4	112	0.00	30.297 
07:25	32.8	32.8	32.8	90	30.2	3	6	112	0.00	30.297 
07:30	32.8	32.8	32.8	91	30.5	2	5	112	0.00	30.294 
07:35	32.9	32.9	32.9	91	30.6	2	4	112	0.00	30.294 
07:40	32.9	32.9	32.9	91	30.6	3	6	112	0.00	30.294 
07:45	32.9	32.9	32.9	91	30.6	2	5	112	0.00	30.293 
07:50	32.9	32.9	32.9	91	30.6	2	4	90	0.00	30.293 
07:55	33.1	33.1	33.1	91	30.8	2	5	90	0.01	30.293 
08:00	33.1	33.1	33.1	91	30.8	3	5	112	0.00	30.289 
08:05	33.2	33.2	33.2	91	30.9	2	4	112	0.00	30.289 
08:10	33.4	33.4	33.4	91	31.1	2	4	112	0.00	30.289 
08:15	33.5	33.5	33.5	91	31.2	2	5	90	0.01	30.284 
08:20	33.7	33.7	33.7	91	31.4	2	4	90	0.00	30.284 
08:25	33.8	33.8	33.8	92	31.7	2	4	90	0.00	30.284 
08:30	34.0	34.0	34.0	92	31.9	3	6	112	0.01	30.280 
08:35	34.1	34.1	34.1	92	32.0	2	6	112	0.00	30.280 
08:40	34.4	34.4	34.4	92	32.3	2	3	112	0.00	30.280 
08:45	34.6	34.6	34.6	92	32.5	2	6	112	0.00	30.273 
08:50	34.7	34.7	34.7	92	32.6	3	5	112	0.00	30.273 
08:55	34.9	34.9	34.9	91	32.5	3	7	112	0.00	30.273 
09:00	35.0	35.0	35.0	91	32.6	3	7	112	0.00	30.269 
09:05	35.2	35.2	35.2	90	32.6	3	6	112	0.00	30.269 
09:10	35.3	35.3	35.3	90	32.7	1	6	112	0.00	30.269 
09:15	35.5	35.5	35.5	90	32.9	1	3	112	0.00	30.271 
09:20	35.6	35.6	35.6	90	33.0	1	2	112	0.00	30.271 
09:25	35.9	35.9	35.9	91	33.5	1	3	112	0.00	30.271 
09:30	36.3	36.3	36.3	91	33.9	1	3	135	0.00	30.263 
09:35	36.9	36.9	36.9	91	34.5	1	5	112	0.00	30.263 
09:40	37.3	37.3	37.3	90	34.6	1	3	90	0.00	30.263 
09:45	37.9	37.9	37.9	90	35.2	2	4	90	0.00	30.256 
09:50	38.5	38.5	38.5	89	35.5	2	4	112	0.00	30.256 
09:55	39.1	39.1	39.1	89	36.1	1	4	135	0.00	30.256 
10:00	39.5	39.5	39.5	88	36.2	1	3	112	0.00	30.248 
10:05	39.9	39.9	39.9	87	36.4	1	4	112	0.00	30.248 
10:10	40.3	40.3	40.3	87	36.7	1	3	112	0.00	30.248 
10:15	40.6	40.6	40.6	86	36.7	1	4	112	0.00	30.245 
10:20	40.8	40.8	40.8	86	36.9	2	4	112	0.00	30.245 
10:25	40.8	40.8	40.8	86	36.9	1	3	112	0.00	30.245 
10:30	40.9	40.9	40.9	86	37.0	1	3	112	0.00	30.235 
10:35	41.2	41.2	41.2	87	37.6	1	4	112	0.00	30.235 
10:40	41.3	41.3	41.3	87	37.7	1	3	112	0.00	30.235 
10:45	41.6	41.6	41.6	87	38.0	1	3	112	0.00	30.239 
10:50	42.3	42.3	42.3	87	38.7	1	3	112	0.00	30.239 
10:55	43.1	43.1	43.1	86	39.2	1	2	112	0.00	30.239 
11:00	43.9	43.9	43.9	85	39.7	2	4	112	0.00	30.228 
11:05	44.5	44.5	44.5	85	40.3	1	3	90	0.00	30.228 
11:10	45.2	45.2	45.2	85	41.0	1	2	112	0.00	30.228 
11:15	45.8	45.8	45.8	85	41.6	1	3	112	0.00	30.217 
11:20	46.5	46.5	46.5	85	42.2	1	2	135	0.00	30.217 
11:25	47.4	47.4	47.4	85	43.1	0	2	135	0.00	30.217 
11:30	48.2	48.2	48.2	84	43.6	1	4	112	0.00	30.210 
11:35	48.8	48.8	48.8	84	44.2	0	1	112	0.00	30.210 
11:40	49.5	49.5	49.5	83	44.6	0	3	112	0.00	30.210 
11:45	49.9	49.9	49.9	81	44.3	1	2	112	0.00	30.203 
11:50	50.4	50.4	50.4	82	45.1	0	1	112	0.00	30.203 
11:55	51.0	51.0	51.0	82	45.7	1	2	112	0.00	30.203 
12:00	51.7	51.7	51.7	81	46.1	1	3	112	0.00	30.192 
12:05	52.5	52.5	52.5	79	46.2	1	4	135	0.00	30.192 
12:10	53.2	53.2	53.2	79	46.9	1	4	112	0.00	30.192 
12:15	53.9	53.9	53.9	79	47.5	1	4	112	0.00	30.183 
12:20	54.8	54.8	54.8	80	48.7	1	2	112	0.00	30.183 
12:25	56.0	56.0	56.0	77	48.9	1	3	90	0.00	30.183 
12:30	56.7	56.7	56.7	76	49.2	1	3	112	0.00	30.167 
12:35	56.9	56.9	56.9	75	49.1	2	5	270	0.00	30.167 
12:40	57.2	57.2	57.2	76	49.7	1	4	112	0.00	30.167 
12:45	57.8	57.8	57.8	76	50.3	1	2	90	0.00	30.162 
12:50	58.4	58.4	58.4	78	51.6	1	4	112	0.00	30.162 
12:55	59.3	59.3	59.3	76	51.7	2	5	90	0.00	30.162 
13:00	60.4	60.4	60.4	74	52.1	2	4	248	0.00	30.149 
13:05	61.6	61.6	61.6	74	53.2	2	5	90	0.00	30.149 
13:10	62.6	62.6	62.6	70	52.7	3	9	248	0.00	30.149 
13:15	63.2	63.2	63.2	69	52.9	3	10	248	0.00	30.139 
13:20	63.9	63.9	63.9	71	54.3	2	7	248	0.00	30.139 
13:25	64.7	64.7	64.7	69	54.3	2	7	270	0.00	30.139 
13:30	65.5	65.5	65.5	68	54.7	3	9	248	0.00	30.125 
13:35	66.3	66.3	66.3	65	54.2	2	9	68	0.00	30.125 
13:40	66.9	66.9	66.9	66	55.2	2	10	270	0.00	30.125 
13:45	67.8	67.8	67.8	68	56.8	1	6	112	0.00	30.109 
13:50	68.4	68.4	68.4	63	55.3	2	6	248	0.00	30.109 
13:55	68.9	68.9	68.9	63	55.8	3	6	68	0.00	30.109 
14:00	69.3	69.3	69.3	62	55.7	3	7	112	0.00	30.103 
14:05	69.8	69.8	69.8	61	55.7	3	6	248	0.00	30.103 
14:10	70.1	70.1	70.1	58	54.6	3	6	248	0.00	30.103 
14:15	69.9	69.9	69.9	59	54.9	3	9	248	0.00	30.090 
14:20	69.9	69.9	69.9	59	54.9	3	9	248	0.00	30.090 
14:25	70.3	70.3	70.3	57	54.3	5	10	248	0.00	30.090 
14:30	70.6	70.6	70.6	58	55.1	2	6	270	0.00	30.085 
14:35	70.9	70.9	70.9	55	53.9	5	11	248	0.00	30.085 
14:40	71.1	71.1	71.1	55	54.1	5	11	270	0.00	30.085 
14:45	71.3	71.3	71.3	54	53.8	4	11	248	0.00	30.076 
14:50	71.5	71.5	71.5	55	54.5	5	13	248	0.00	30.076 
14:55	72.5	72.5	72.5	52	53.9	6	11	248	0.00	30.076 
15:00	72.8	72.8	72.8	51	53.6	5	12	270	0.00	30.072 
15:05	72.5	72.5	72.5	53	54.4	4	10	248	0.00	30.072 
15:10	72.1	72.1	72.1	51	53.0	6	12	270	0.00	30.072 
15:15	71.8	71.8	71.8	51	52.7	8	16	270	0.00	30.070 
15:20	72.1	72.1	72.1	52	53.5	6	13	270	0.00	30.070 
15:25	72.7	72.7	72.7	50	53.0	6	17	248	0.00	30.070 
15:30	72.7	72.7	72.7	51	53.5	2	9	248	0.00	30.070 
15:35	72.7	72.7	72.7	50	53.0	6	13	248	0.00	30.070 
15:40	73.0	73.0	73.0	50	53.2	6	13	248	0.00	30.070 
15:45	73.0	73.0	73.0	50	53.2	5	13	248	0.00	30.058 
15:50	72.3	72.3	72.3	51	53.1	5	13	248	0.00	30.058 
15:55	72.1	72.1	72.1	50	52.4	6	16	270	0.00	30.058 
16:00	72.7	72.7	72.7	49	52.4	7	18	270	0.00	30.057 
16:05	73.0	73.0	73.0	50	53.2	6	18	248	0.00	30.057 
16:10	73.2	73.2	73.2	48	52.3	5	12	248	0.00	30.057 
16:15	72.7	72.7	72.7	49	52.4	6	13	270	0.00	30.052 
16:20	72.3	72.3	72.3	50	52.6	6	15	248	0.00	30.052 
16:25	72.3	72.3	72.3	50	52.6	4	12	248	0.00	30.052 
16:30	72.1	72.1	72.1	50	52.4	3	8	248	0.00	30.051 
16:35	72.1	72.1	72.1	50	52.4	3	11	248	0.00	30.051 
16:40	72.1	72.1	72.1	50	52.4	4	13	248	0.00	30.051 
16:45	72.1	72.1	72.1	50	52.4	4	11	248	0.00	30.048 
16:50	72.3	72.3	72.3	51	53.1	3	7	248	0.00	30.048 
16:55	72.0	72.0	72.0	51	52.9	3	7	248	0.00	30.048 
17:00	71.6	71.6	71.6	51	52.5	3	10	248	0.00	30.042 
17:05	71.6	71.6	71.6	52	53.0	2	5	248	0.00	30.042 
17:10	71.8	71.8	71.8	52	53.2	2	7	248	0.00	30.042 
17:15	71.6	71.6	71.6	52	53.0	2	10	248	0.00	30.037 
17:20	71.3	71.3	71.3	52	52.8	2	6	248	0.00	30.037 
17:25	71.1	71.1	71.1	53	53.1	2	6	248	0.00	30.037 
17:30	71.1	71.1	71.1	54	53.6	2	7	248	0.00	30.036 
17:35	71.1	71.1	71.1	53	53.1	1	5	248	0.00	30.036 
17:40	70.9	70.9	70.9	54	53.4	0	3	292	0.00	30.036 
17:45	70.9	70.9	70.9	54	53.4	2	7	270	0.00	30.037 
17:50	70.9	70.9	70.9	54	53.4	2	6	248	0.00	30.037 
17:55	70.8	70.8	70.8	54	53.3	1	6	248	0.00	30.037 
18:00	70.6	70.6	70.6	53	52.6	2	6	270	0.00	30.033 
18:05	70.3	70.3	70.3	53	52.3	2	6	225	0.00	30.033 
18:10	69.9	69.9	69.9	54	52.5	1	6	248	0.00	30.033 
18:15	69.8	69.8	69.8	54	52.4	3	9	248	0.00	30.035 
18:20	69.6	69.6	69.6	54	52.2	2	7	248	0.00	30.035 
18:25	69.4	69.4	69.4	54	52.0	2	7	225	0.00	30.035 
18:30	69.1	69.1	69.1	55	52.2	1	2	248	0.00	30.031 
18:35	68.8	68.8	68.8	56	52.5	1	6	248	0.00	30.031 
18:40	68.3	68.3	68.3	56	52.0	1	3	270	0.00	30.031 
18:45	67.6	67.6	67.6	57	51.8	1	6	292	0.00	30.030 
18:50	67.3	67.3	67.3	58	52.0	1	5	248	0.00	30.030 
18:55	66.8	66.8	66.8	59	52.0	1	3	158	0.00	30.030 
19:00	66.3	66.3	66.3	59	51.5	1	3	225	0.00	30.032 
19:05	66.1	66.1	66.1	59	51.3	1	3	248	0.00	30.032 
19:10	65.8	65.8	65.8	60	51.5	1	3	225	0.00	30.032 
19:15	65.8	65.8	65.8	59	51.1	1	4	270	0.00	30.031 
19:20	65.6	65.6	65.6	59	50.9	1	4	225	0.00	30.031 
19:25	65.6	65.6	65.6	58	50.4	2	9	270	0.00	30.031 
19:30	65.8	65.8	65.8	58	50.6	2	5	248	0.00	30.032 
19:35	65.8	65.8	65.8	58	50.6	1	6	248	0.00	30.032 
19:40	65.8	65.8	65.8	57	50.1	1	4	248	0.00	30.032 
19:45	66.0	66.0	66.0	56	49.8	2	6	248	0.00	30.031 
19:50	65.8	65.8	65.8	56	49.7	1	6	248	0.00	30.031 
19:55	65.6	65.6	65.6	56	49.5	2	5	248	0.00	30.031 
20:00	65.5	65.5	65.5	55	48.9	2	5	248	0.00	30.035 
20:05	65.5	65.5	65.5	55	48.9	1	3	248	0.00	30.035 
20:10	65.2	65.2	65.2	56	49.1	1	5	248	0.00	30.035 
20:15	65.0	65.0	65.0	56	48.9	1	6	248	0.00	30.035 
20:20	64.5	64.5	64.5	57	48.9	0	2	248	0.00	30.035 
20:25	63.9	63.9	63.9	58	48.8	0	2	248	0.00	30.035 
20:30	63.5	63.5	63.5	58	48.5	1	4	112	0.00	30.032 
20:35	63.7	63.7	63.7	57	48.2	1	4	68	0.00	30.032 
20:40	63.9	63.9	63.9	56	47.9	2	5	248	0.00	30.032 
20:45	63.9	63.9	63.9	56	47.9	1	5	292	0.00	30.030 
20:50	63.7	63.7	63.7	56	47.7	1	5	248	0.00	30.030 
20:55	63.5	63.5	63.5	56	47.5	1	4	248	0.00	30.030 
21:00	63.5	63.5	63.5	56	47.5	1	4	248	0.00	30.029 
21:05	63.2	63.2	63.2	56	47.2	1	4	248	0.00	30.029 
21:10	62.9	62.9	62.9	57	47.4	0	2	270	0.00	30.029 
21:15	62.6	62.6	62.6	57	47.1	1	3	248	0.00	30.026 
21:20	62.6	62.6	62.6	57	47.1	1	5	270	0.00	30.026 
21:25	62.4	62.4	62.4	57	47.0	1	7	225	0.00	30.026 
21:30	62.6	62.6	62.6	57	47.1	2	6	248	0.00	30.026 
21:35	62.6	62.6	62.6	56	46.7	2	5	248	0.00	30.026 
21:40	62.6	62.6	62.6	56	46.7	2	5	248	0.00	30.026 
21:45	62.6	62.6	62.6	56	46.7	1	4	248	0.00	30.025 
21:50	62.4	62.4	62.4	56	46.5	2	6	248	0.00	30.025 
21:55	62.4	62.4	62.4	56	46.5	1	4	248	0.00	30.025 
22:00	62.3	62.3	62.3	57	46.9	1	5	248	0.00	30.024 
22:05	62.3	62.3	62.3	56	46.4	2	5	248	0.00	30.024 
22:10	62.3	62.3	62.3	56	46.4	2	7	270	0.00	30.024 
22:15	62.4	62.4	62.4	56	46.5	2	7	248	0.00	30.016 
22:20	62.3	62.3	62.3	56	46.4	1	10	270	0.00	30.016 
22:25	62.3	62.3	62.3	56	46.4	2	6	248	0.00	30.016 
22:30	62.1	62.1	62.1	56	46.2	2	5	248	0.00	30.009 
22:35	62.0	62.0	62.0	57	46.6	2	5	225	0.00	30.009 
22:40	61.8	61.8	61.8	57	46.4	2	5	248	0.00	30.009 
22:45	61.8	61.8	61.8	57	46.4	2	5	248	0.00	30.010 
22:50	61.6	61.6	61.6	57	46.2	2	5	248	0.00	30.010 
22:55	61.3	61.3	61.3	58	46.4	1	5	248	0.00	30.010 
23:00	61.3	61.3	61.3	58	46.4	2	9	248	0.00	30.009 
23:05	61.2	61.2	61.2	58	46.3	2	6	225	0.00	30.009 
23:10	61.2	61.2	61.2	58	46.3	1	4	248	0.00	30.009 
23:15	61.3	61.3	61.3	58	46.4	2	5	248	0.00	30.001 
23:20	61.3	61.3	61.3	58	46.4	1	5	225	0.00	30.001 
23:25	61.3	61.3	61.3	58	46.4	2	6	248	0.00	30.001 
23:30	61.3	61.3	61.3	58	46.4	2	5	248	0.00	30.000 
23:35	61.3	61.3	61.3	59	46.8	1	4	248	0.00	30.000 
23:40	61.2	61.2	61.2	59	46.8	1	6	225	0.00	30.000 
23:45	60.9	60.9	60.9	59	46.5	1	5	225	0.00	29.996 
23:50	60.9	60.9	60.9	60	46.9	2	6	248	0.00	29.996 
23:55	60.7	60.7	60.7	60	46.7	1	4	270	0.00	29.996 

CoCoRaHS
IN-AL-39
A2 Web Hosting
Creative Commons License
GoDaddy
Look for:

loaded 2017-12-10 21:10:47 • last modified 2010-11-18 10:43:29
Privacy PolicyDisclaimer
• wx.awcolley.com is powered by PmWiki v.2002016 •
• all content (unless otherwise noted) © 2017 A W Colley